Time;durP1;ratioP1;P1;durP2;ratioP2;P2;SDS_P1;SDS_P2;PMS_P1;PMS_P2;Temp;Humidity;BMP_temperature;BMP_pressure;BME280_temperature;BME280_humidity;BME280_pressure;Samples;Min_cycle;Max_cycle;Signal;HPM_P1;HPM_P2
2023/01/03 00:02:32;;;;;;;3.47;2.30;;;;;;;;;;5013248;28;20483;-69
2023/01/03 00:05:21;;;;;;;4.73;2.10;;;;;;;;;;5018173;28;21002;-69
2023/01/03 00:08:10;;;;;;;4.53;2.33;;;;;;;;;;5019135;28;20575;-69
2023/01/03 00:10:58;;;;;;;8.40;3.33;;;;;;;;;;5013511;28;20484;-69
2023/01/03 00:13:46;;;;;;;4.10;2.20;;;;;;;;;;5015329;28;20862;-69
2023/01/03 00:16:36;;;;;;;4.73;2.33;;;;;;;;;;4999645;28;20614;-69
2023/01/03 00:19:25;;;;;;;4.67;1.83;;;;;;;;;;5002076;28;20617;-69
2023/01/03 00:22:15;;;;;;;5.47;2.20;;;;;;;;;;4998172;28;20626;-69
2023/01/03 00:25:04;;;;;;;4.70;2.67;;;;;;;;;;5009260;28;20540;-70
2023/01/03 00:27:55;;;;;;;4.60;2.10;;;;;;;;;;5000057;28;20457;-70
2023/01/03 00:30:44;;;;;;;3.93;1.90;;;;;;;;;;4995037;28;20472;-69
2023/01/03 00:33:34;;;;;;;3.73;2.27;;;;;;;;;;5008205;28;20453;-69
2023/01/03 00:36:23;;;;;;;3.30;2.00;;;;;;;;;;4998031;28;21120;-70
2023/01/03 00:39:12;;;;;;;3.00;1.90;;;;;;;;;;4996319;28;20815;-70
2023/01/03 00:42:00;;;;;;;3.90;2.17;;;;;;;;;;5006364;28;20475;-70
2023/01/03 00:44:49;;;;;;;4.13;2.17;;;;;;;;;;5011381;28;20483;-70
2023/01/03 00:47:37;;;;;;;6.13;2.80;;;;;;;;;;4999904;28;20537;-70
2023/01/03 00:50:28;;;;;;;3.67;1.70;;;;;;;;;;4994399;28;21040;-70
2023/01/03 00:53:16;;;;;;;7.20;1.97;;;;;;;;;;4995906;28;21678;-70
2023/01/03 00:56:05;;;;;;;4.77;1.80;;;;;;;;;;4996251;28;20552;-69
2023/01/03 00:58:54;;;;;;;4.30;2.13;;;;;;;;;;5006004;28;21405;-69
2023/01/03 01:01:44;;;;;;;3.17;2.30;;;;;;;;;;5012719;28;20473;-70
2023/01/03 01:04:35;;;;;;;6.80;2.13;;;;;;;;;;4995319;28;20619;-69
2023/01/03 01:07:25;;;;;;;3.67;1.80;;;;;;;;;;5013437;28;21205;-69
2023/01/03 01:10:18;;;;;;;3.43;1.60;;;;;;;;;;5000174;28;20530;-69
2023/01/03 01:13:06;;;;;;;5.83;2.20;;;;;;;;;;5004370;28;20482;-69
2023/01/03 01:15:55;;;;;;;3.70;1.97;;;;;;;;;;4996046;28;20526;-70
2023/01/03 01:18:45;;;;;;;4.40;1.60;;;;;;;;;;5006234;28;20457;-69
2023/01/03 01:21:34;;;;;;;5.00;2.30;;;;;;;;;;5009371;28;20504;-69
2023/01/03 01:24:23;;;;;;;5.60;2.30;;;;;;;;;;5005521;28;20480;-70
2023/01/03 01:27:12;;;;;;;5.03;2.37;;;;;;;;;;4995382;28;20961;-69
2023/01/03 01:30:01;;;;;;;3.63;1.90;;;;;;;;;;4997262;28;20461;-70
2023/01/03 01:32:50;;;;;;;5.57;2.10;;;;;;;;;;5002474;28;20574;-70
2023/01/03 01:35:38;;;;;;;4.30;1.63;;;;;;;;;;5002882;28;20479;-70
2023/01/03 01:38:27;;;;;;;5.57;1.90;;;;;;;;;;5000972;28;20484;-69
2023/01/03 01:44:36;;;;;;;3.30;2.10;;;;;;;;;;4990960;28;20488;-70
2023/01/03 01:44:45;;;;;;;2.37;1.80;;;;;;;;;;5018185;28;20468;-69
2023/01/03 01:47:35;;;;;;;4.90;1.77;;;;;;;;;;5017581;28;20491;-69
2023/01/03 01:50:26;;;;;;;4.50;2.00;;;;;;;;;;5009141;28;20488;-69
2023/01/03 01:53:16;;;;;;;2.93;2.00;;;;;;;;;;5021179;28;20479;-70
2023/01/03 01:56:06;;;;;;;3.20;2.10;;;;;;;;;;5016145;28;20473;-69
2023/01/03 01:58:57;;;;;;;3.93;2.10;;;;;;;;;;5015333;28;20452;-69
2023/01/03 02:01:46;;;;;;;4.33;2.47;;;;;;;;;;5016917;28;20480;-70
2023/01/03 02:04:36;;;;;;;4.00;2.40;;;;;;;;;;5015850;28;20495;-69
2023/01/03 02:07:25;;;;;;;7.63;2.13;;;;;;;;;;5013563;28;20551;-71
2023/01/03 02:10:13;;;;;;;4.10;2.70;;;;;;;;;;5015875;28;20547;-69
2023/01/03 02:13:09;;;;;;;5.00;2.33;;;;;;;;;;5016055;28;20825;-70
2023/01/03 02:16:04;;;;;;;4.80;2.47;;;;;;;;;;4997569;28;20988;-68
2023/01/03 02:19:05;;;;;;;5.53;2.77;;;;;;;;;;5005062;28;20605;-68
2023/01/03 02:22:04;;;;;;;3.17;2.43;;;;;;;;;;5005159;28;20480;-68
2023/01/03 02:25:15;;;;;;;4.07;2.80;;;;;;;;;;5000513;28;20475;-68
2023/01/03 02:28:17;;;;;;;6.03;3.07;;;;;;;;;;4998479;28;20456;-68
2023/01/03 02:31:10;;;;;;;5.20;3.07;;;;;;;;;;5008512;28;20626;-68
2023/01/03 02:34:02;;;;;;;5.67;3.17;;;;;;;;;;5016160;28;20484;-68
2023/01/03 02:36:57;;;;;;;5.97;3.70;;;;;;;;;;5020484;28;20470;-67
2023/01/03 02:39:48;;;;;;;5.33;3.50;;;;;;;;;;5016121;28;20465;-68
2023/01/03 02:43:01;;;;;;;5.67;3.20;;;;;;;;;;5012032;28;20510;-68
2023/01/03 02:46:02;;;;;;;4.37;2.83;;;;;;;;;;5018082;28;20459;-68
2023/01/03 02:48:54;;;;;;;6.00;3.00;;;;;;;;;;5018131;28;20487;-68
2023/01/03 02:51:44;;;;;;;4.40;2.70;;;;;;;;;;5015549;28;20626;-68
2023/01/03 02:54:36;;;;;;;5.10;3.00;;;;;;;;;;5018658;28;20532;-68
2023/01/03 02:57:29;;;;;;;7.47;3.60;;;;;;;;;;5017890;28;20465;-68
2023/01/03 03:00:20;;;;;;;4.00;2.80;;;;;;;;;;5011895;28;20470;-70
2023/01/03 03:03:12;;;;;;;4.77;3.80;;;;;;;;;;5015934;28;20460;-68
2023/01/03 03:06:07;;;;;;;5.03;2.90;;;;;;;;;;5017293;28;20460;-68
2023/01/03 03:08:58;;;;;;;5.17;3.07;;;;;;;;;;5018702;28;20458;-68
2023/01/03 03:14:54;;;;;;;5.30;2.77;;;;;;;;;;5016060;28;20470;-68
2023/01/03 03:17:44;;;;;;;4.90;3.00;;;;;;;;;;5007074;28;20488;-67
2023/01/03 03:26:50;;;;;;;4.40;3.30;;;;;;;;;;5003610;28;20601;-68
2023/01/03 03:29:38;;;;;;;5.27;3.47;;;;;;;;;;5007876;28;20526;-68
2023/01/03 03:32:29;;;;;;;3.80;2.97;;;;;;;;;;5006101;28;20860;-68
2023/01/03 03:35:20;;;;;;;5.50;3.40;;;;;;;;;;5004095;28;20468;-70
2023/01/03 03:38:10;;;;;;;4.67;3.50;;;;;;;;;;5005291;28;20494;-68
2023/01/03 03:47:27;;;;;;;5.67;2.83;;;;;;;;;;5015126;28;20456;-69
2023/01/03 03:50:20;;;;;;;6.30;3.40;;;;;;;;;;5010002;28;20448;-69
2023/01/03 03:53:10;;;;;;;5.47;3.60;;;;;;;;;;5015299;28;20476;-69
2023/01/03 03:56:03;;;;;;;11.20;4.20;;;;;;;;;;5008561;28;20635;-69
2023/01/03 03:58:54;;;;;;;9.13;3.50;;;;;;;;;;5003778;28;20453;-69
2023/01/03 04:01:43;;;;;;;9.00;3.30;;;;;;;;;;4999041;28;20489;-69
2023/01/03 04:04:35;;;;;;;7.97;4.10;;;;;;;;;;4997329;28;20480;-69
2023/01/03 04:07:23;;;;;;;6.43;3.80;;;;;;;;;;5002640;28;20478;-70
2023/01/03 04:10:13;;;;;;;4.27;3.50;;;;;;;;;;5007410;28;20463;-69
2023/01/03 04:13:03;;;;;;;3.40;3.10;;;;;;;;;;4999496;28;20576;-69
2023/01/03 04:15:51;;;;;;;4.13;3.30;;;;;;;;;;5002459;28;20491;-71
2023/01/03 04:18:40;;;;;;;5.20;4.00;;;;;;;;;;5002252;28;20474;-68
2023/01/03 04:21:29;;;;;;;6.80;3.80;;;;;;;;;;5005133;28;20594;-70
2023/01/03 04:24:19;;;;;;;6.20;3.77;;;;;;;;;;5010599;28;20459;-70
2023/01/03 04:27:07;;;;;;;5.70;4.13;;;;;;;;;;5008733;28;20840;-68
2023/01/03 04:29:57;;;;;;;4.90;4.20;;;;;;;;;;5002717;28;20835;-69
2023/01/03 04:32:46;;;;;;;5.73;3.90;;;;;;;;;;5004495;28;22179;-70
2023/01/03 04:35:35;;;;;;;4.83;3.97;;;;;;;;;;5006379;28;21015;-69
2023/01/03 04:38:24;;;;;;;9.43;4.60;;;;;;;;;;5004920;28;20958;-69
2023/01/03 04:41:12;;;;;;;6.70;4.70;;;;;;;;;;5002419;28;20640;-69
2023/01/03 04:44:03;;;;;;;6.10;4.70;;;;;;;;;;5007580;28;20476;-70
2023/01/03 04:46:53;;;;;;;7.60;4.40;;;;;;;;;;5014159;28;20448;-69
2023/01/03 04:49:45;;;;;;;7.30;4.80;;;;;;;;;;5016159;28;20949;-70
2023/01/03 04:52:33;;;;;;;7.60;4.70;;;;;;;;;;5012627;28;21206;-69
2023/01/03 04:55:22;;;;;;;7.30;4.47;;;;;;;;;;5016644;28;20475;-69
2023/01/03 04:58:10;;;;;;;5.53;4.27;;;;;;;;;;5015995;28;20518;-70
2023/01/03 05:01:02;;;;;;;7.53;5.23;;;;;;;;;;5008571;28;20492;-70
2023/01/03 05:03:52;;;;;;;6.97;5.13;;;;;;;;;;5013459;28;20562;-69
2023/01/03 05:06:41;;;;;;;4.90;4.40;;;;;;;;;;5005930;28;21009;-70
2023/01/03 05:09:29;;;;;;;5.23;4.63;;;;;;;;;;5002546;28;20637;-69
2023/01/03 05:12:18;;;;;;;6.50;4.27;;;;;;;;;;4995760;28;20486;-70
2023/01/03 05:15:09;;;;;;;5.40;4.90;;;;;;;;;;5002367;28;20492;-69
2023/01/03 05:17:58;;;;;;;5.50;4.60;;;;;;;;;;5008106;28;20839;-69
2023/01/03 05:27:02;;;;;;;5.77;5.00;;;;;;;;;;5001276;28;20567;-69
2023/01/03 05:29:52;;;;;;;5.33;4.60;;;;;;;;;;4999376;28;20462;-69
2023/01/03 05:32:40;;;;;;;6.30;5.30;;;;;;;;;;5005247;28;20641;-69
2023/01/03 05:35:29;;;;;;;7.50;5.13;;;;;;;;;;5002487;28;20576;-69
2023/01/03 05:38:19;;;;;;;8.43;5.50;;;;;;;;;;4997906;28;20544;-69
2023/01/03 05:41:08;;;;;;;11.50;5.73;;;;;;;;;;4996628;28;21268;-69
2023/01/03 05:43:56;;;;;;;7.00;5.00;;;;;;;;;;5009572;28;20558;-69
2023/01/03 05:46:45;;;;;;;7.10;5.80;;;;;;;;;;5014339;28;20567;-70
2023/01/03 05:49:34;;;;;;;8.00;5.70;;;;;;;;;;5010637;28;20933;-70
2023/01/03 05:52:23;;;;;;;6.00;5.30;;;;;;;;;;5016335;28;20550;-69
2023/01/03 05:55:13;;;;;;;11.00;5.80;;;;;;;;;;5015930;28;20491;-69
2023/01/03 05:58:01;;;;;;;8.53;5.70;;;;;;;;;;5010423;28;20847;-70
2023/01/03 06:00:50;;;;;;;5.73;5.00;;;;;;;;;;5008527;28;20477;-69
2023/01/03 06:03:44;;;;;;;7.90;5.03;;;;;;;;;;5004236;28;20491;-69
2023/01/03 06:06:32;;;;;;;6.43;5.13;;;;;;;;;;5015709;28;20460;-70
2023/01/03 06:09:21;;;;;;;8.03;5.30;;;;;;;;;;5011527;28;20463;-69
2023/01/03 06:12:11;;;;;;;8.53;5.63;;;;;;;;;;5007148;28;20486;-69
2023/01/03 06:14:59;;;;;;;8.63;5.40;;;;;;;;;;5007104;28;20549;-69
2023/01/03 06:17:53;;;;;;;9.57;5.13;;;;;;;;;;5001536;28;20513;-70
2023/01/03 06:20:42;;;;;;;9.17;6.17;;;;;;;;;;5001307;28;20491;-69
2023/01/03 06:23:30;;;;;;;8.00;5.63;;;;;;;;;;5000359;28;20474;-69
2023/01/03 06:26:20;;;;;;;6.83;6.10;;;;;;;;;;4992232;28;20491;-69
2023/01/03 06:29:10;;;;;;;10.07;6.10;;;;;;;;;;4993318;28;20529;-69
2023/01/03 06:31:59;;;;;;;7.10;6.00;;;;;;;;;;5003359;28;21011;-69
2023/01/03 06:34:58;;;;;;;6.73;5.40;;;;;;;;;;4990562;28;20580;-69
2023/01/03 06:37:46;;;;;;;9.10;6.80;;;;;;;;;;4982179;28;21465;-69
2023/01/03 06:40:35;;;;;;;6.87;5.67;;;;;;;;;;4986240;28;21472;-69
2023/01/03 06:43:33;;;;;;;8.27;6.00;;;;;;;;;;4992677;28;20486;-69
2023/01/03 06:55:56;;;;;;;6.63;5.70;;;;;;;;;;4994121;28;20597;-68
2023/01/03 06:58:45;;;;;;;6.73;6.03;;;;;;;;;;4998472;28;20456;-70
2023/01/03 07:01:35;;;;;;;7.27;6.07;;;;;;;;;;5002727;28;20480;-70
2023/01/03 07:04:24;;;;;;;7.23;5.60;;;;;;;;;;5011106;28;20499;-67
2023/01/03 07:07:13;;;;;;;7.90;5.40;;;;;;;;;;5013539;28;21253;-70
2023/01/03 07:10:01;;;;;;;8.70;6.03;;;;;;;;;;5006200;28;20483;-70
2023/01/03 07:15:57;;;;;;;9.63;5.40;;;;;;;;;;4986656;28;20498;-70
2023/01/03 07:18:48;;;;;;;6.93;5.80;;;;;;;;;;4985942;28;20499;-73
2023/01/03 07:21:43;;;;;;;7.53;5.63;;;;;;;;;;4980128;28;20519;-74
2023/01/03 07:24:31;;;;;;;8.00;5.07;;;;;;;;;;4977398;28;21096;-71
2023/01/03 07:27:20;;;;;;;7.73;5.40;;;;;;;;;;4983353;28;20476;-72
2023/01/03 07:30:09;;;;;;;7.87;4.90;;;;;;;;;;4989243;28;20463;-73
2023/01/03 07:32:58;;;;;;;7.03;5.30;;;;;;;;;;4993732;28;21012;-71
2023/01/03 07:35:48;;;;;;;9.20;5.20;;;;;;;;;;4993834;28;20521;-70
2023/01/03 07:38:36;;;;;;;7.53;4.70;;;;;;;;;;4993916;28;20885;-71
2023/01/03 07:43:35;;;;;;;6.07;4.77;;;;;;;;;;4979620;28;20486;-72
2023/01/03 07:44:33;;;;;;;7.67;5.37;;;;;;;;;;5000326;28;20574;-73
2023/01/03 07:47:21;;;;;;;6.10;4.57;;;;;;;;;;5006682;28;20453;-72
2023/01/03 07:50:10;;;;;;;6.13;5.10;;;;;;;;;;5010120;28;20461;-74
2023/01/03 07:53:00;;;;;;;7.73;4.80;;;;;;;;;;5013603;28;20456;-72
2023/01/03 07:55:49;;;;;;;6.23;5.17;;;;;;;;;;5013099;28;20480;-72
2023/01/03 07:58:38;;;;;;;8.10;5.90;;;;;;;;;;5004006;28;20510;-72
2023/01/03 08:01:28;;;;;;;6.93;4.93;;;;;;;;;;5012723;28;20594;-73
2023/01/03 08:04:17;;;;;;;7.30;5.57;;;;;;;;;;5013181;28;20640;-72
2023/01/03 08:07:05;;;;;;;4.73;4.33;;;;;;;;;;5014842;28;20837;-72
2023/01/03 08:13:20;;;;;;;9.30;6.07;;;;;;;;;;5011631;28;20490;-74
2023/01/03 08:16:11;;;;;;;7.73;6.17;;;;;;;;;;5001415;28;20488;-74
2023/01/03 08:18:59;;;;;;;9.53;6.13;;;;;;;;;;5008378;28;20465;-73
2023/01/03 08:21:48;;;;;;;10.10;6.00;;;;;;;;;;5007889;28;20483;-74
2023/01/03 08:24:37;;;;;;;7.77;6.30;;;;;;;;;;5007669;28;20540;-73
2023/01/03 08:27:27;;;;;;;7.80;6.80;;;;;;;;;;5000691;28;20586;-73
2023/01/03 08:30:15;;;;;;;10.60;7.20;;;;;;;;;;5011984;28;20474;-74
2023/01/03 08:33:04;;;;;;;8.80;6.50;;;;;;;;;;5008289;28;20967;-69
2023/01/03 08:35:55;;;;;;;10.93;7.50;;;;;;;;;;5010745;28;20491;-70
2023/01/03 08:38:45;;;;;;;11.47;7.30;;;;;;;;;;5007440;28;20460;-70
2023/01/03 08:41:37;;;;;;;8.83;6.80;;;;;;;;;;5008526;28;20618;-69
2023/01/03 08:44:27;;;;;;;11.67;7.60;;;;;;;;;;5004786;28;21166;-70
2023/01/03 08:47:16;;;;;;;7.90;7.10;;;;;;;;;;5008472;28;20488;-70
2023/01/03 08:50:05;;;;;;;9.87;7.27;;;;;;;;;;5009195;28;20549;-70
2023/01/03 08:52:54;;;;;;;9.80;7.90;;;;;;;;;;5007406;28;20471;-70
2023/01/03 08:55:43;;;;;;;11.17;8.10;;;;;;;;;;5006202;28;20492;-69
2023/01/03 08:58:31;;;;;;;9.20;7.70;;;;;;;;;;5011484;28;20464;-70
2023/01/03 09:01:21;;;;;;;12.30;7.97;;;;;;;;;;5009245;28;20473;-69
2023/01/03 09:04:10;;;;;;;10.07;7.70;;;;;;;;;;5004415;28;20884;-69
2023/01/03 09:06:59;;;;;;;11.50;8.43;;;;;;;;;;5006126;28;20459;-69
2023/01/03 09:09:47;;;;;;;10.80;8.00;;;;;;;;;;5006182;28;20456;-71
2023/01/03 09:12:36;;;;;;;11.83;7.90;;;;;;;;;;5013793;28;21063;-69
2023/01/03 09:15:24;;;;;;;12.50;7.73;;;;;;;;;;5000620;28;21002;-69
2023/01/03 09:18:14;;;;;;;10.50;7.60;;;;;;;;;;4996875;28;20453;-69
2023/01/03 09:21:03;;;;;;;11.33;8.20;;;;;;;;;;5005328;28;20476;-71
2023/01/03 09:23:53;;;;;;;9.37;8.40;;;;;;;;;;5004088;28;21063;-69
2023/01/03 09:26:42;;;;;;;11.07;7.60;;;;;;;;;;4999813;28;22739;-69
2023/01/03 09:29:41;;;;;;;9.70;7.50;;;;;;;;;;5005915;28;20893;-70
2023/01/03 09:32:30;;;;;;;9.77;8.13;;;;;;;;;;5006064;28;20874;-72
2023/01/03 09:35:20;;;;;;;9.63;7.47;;;;;;;;;;5005733;28;20484;-70
2023/01/03 09:38:09;;;;;;;12.83;8.23;;;;;;;;;;4999050;28;20518;-70
2023/01/03 09:40:59;;;;;;;10.00;7.30;;;;;;;;;;4987751;28;20496;-70
2023/01/03 09:43:49;;;;;;;11.17;6.97;;;;;;;;;;4997318;28;20999;-70
2023/01/03 09:46:38;;;;;;;12.67;7.83;;;;;;;;;;5005872;28;20487;-70
2023/01/03 09:49:27;;;;;;;8.80;7.37;;;;;;;;;;5012912;28;20471;-70
2023/01/03 10:05:10;;;;;;;10.37;7.50;;;;;;;;;;5004953;28;21540;-71
2023/01/03 10:08:13;;;;;;;10.93;7.63;;;;;;;;;;5011265;28;20456;-71
2023/01/03 10:11:04;;;;;;;11.43;6.73;;;;;;;;;;4998951;28;20510;-71
2023/01/03 10:14:01;;;;;;;10.13;7.40;;;;;;;;;;5011169;28;20584;-69
2023/01/03 10:16:57;;;;;;;9.17;7.93;;;;;;;;;;5008232;28;20567;-69
2023/01/03 10:19:58;;;;;;;9.60;7.57;;;;;;;;;;5011841;28;20444;-71
2023/01/03 10:22:47;;;;;;;10.03;6.93;;;;;;;;;;5000905;28;20490;-69
2023/01/03 10:25:39;;;;;;;10.57;6.77;;;;;;;;;;5009444;28;20475;-69
2023/01/03 10:28:32;;;;;;;9.10;6.47;;;;;;;;;;5001936;28;20452;-69
2023/01/03 10:31:31;;;;;;;10.80;7.17;;;;;;;;;;5001361;28;21093;-72
2023/01/03 10:34:20;;;;;;;8.37;7.10;;;;;;;;;;5010454;28;20542;-69
2023/01/03 10:37:16;;;;;;;9.40;7.50;;;;;;;;;;5015621;28;20490;-69
2023/01/03 10:40:05;;;;;;;10.97;6.00;;;;;;;;;;5010219;28;20649;-69
2023/01/03 10:42:55;;;;;;;10.27;7.00;;;;;;;;;;5013119;28;20577;-69
2023/01/03 10:45:52;;;;;;;8.77;6.80;;;;;;;;;;5011689;28;20540;-69
2023/01/03 10:48:41;;;;;;;9.27;6.57;;;;;;;;;;5004542;28;20444;-69
2023/01/03 10:51:55;;;;;;;11.43;7.07;;;;;;;;;;5012894;28;20479;-69
2023/01/03 10:54:49;;;;;;;10.27;7.27;;;;;;;;;;5013571;28;20490;-69
2023/01/03 10:57:44;;;;;;;11.77;8.03;;;;;;;;;;5015489;28;20640;-69
2023/01/03 11:00:37;;;;;;;8.53;7.43;;;;;;;;;;5004728;28;20479;-69
2023/01/03 11:03:28;;;;;;;10.03;7.20;;;;;;;;;;5012352;28;20451;-68
2023/01/03 11:06:16;;;;;;;8.67;6.43;;;;;;;;;;5005507;28;20443;-69
2023/01/03 11:09:06;;;;;;;12.87;7.87;;;;;;;;;;5014817;28;22624;-71
2023/01/03 11:11:55;;;;;;;11.03;7.70;;;;;;;;;;5005821;28;20871;-71
2023/01/03 11:14:49;;;;;;;8.40;7.00;;;;;;;;;;5013397;28;21088;-69
2023/01/03 11:17:52;;;;;;;7.90;6.77;;;;;;;;;;5013372;28;21604;-69
2023/01/03 11:20:42;;;;;;;7.87;6.43;;;;;;;;;;5000135;28;22420;-70
2023/01/03 11:23:36;;;;;;;8.87;6.73;;;;;;;;;;4992623;28;20892;-69
2023/01/03 11:26:32;;;;;;;10.13;5.80;;;;;;;;;;4998588;28;20493;-69
2023/01/03 11:29:38;;;;;;;9.83;5.67;;;;;;;;;;5006883;28;21217;-69
2023/01/03 11:32:31;;;;;;;9.70;5.20;;;;;;;;;;5001690;28;20480;-70
2023/01/03 11:35:34;;;;;;;8.67;5.47;;;;;;;;;;5008514;28;20487;-71
2023/01/03 11:38:33;;;;;;;6.37;4.97;;;;;;;;;;5001864;28;20521;-71
2023/01/03 11:41:28;;;;;;;5.37;4.50;;;;;;;;;;5011593;28;20497;-70
2023/01/03 11:44:28;;;;;;;7.07;5.07;;;;;;;;;;5007304;28;21050;-70
2023/01/03 11:47:23;;;;;;;7.63;4.53;;;;;;;;;;5008470;28;20954;-69
2023/01/03 11:50:18;;;;;;;5.60;4.10;;;;;;;;;;5010178;28;20452;-71
2023/01/03 11:53:14;;;;;;;6.47;4.70;;;;;;;;;;4998720;28;20839;-70
2023/01/03 11:56:08;;;;;;;5.67;4.23;;;;;;;;;;4999924;28;20467;-71
2023/01/03 11:59:05;;;;;;;6.60;3.93;;;;;;;;;;5004819;28;20452;-71
2023/01/03 12:02:09;;;;;;;3.73;3.30;;;;;;;;;;4987780;28;20492;-70
2023/01/03 12:05:06;;;;;;;9.00;3.73;;;;;;;;;;5003207;28;20479;-71
2023/01/03 12:07:58;;;;;;;4.37;3.97;;;;;;;;;;5017120;28;20444;-71
2023/01/03 12:10:54;;;;;;;5.17;4.37;;;;;;;;;;5004696;28;20483;-71
2023/01/03 12:13:43;;;;;;;6.17;3.90;;;;;;;;;;5012283;28;20506;-70
2023/01/03 12:16:40;;;;;;;5.03;3.70;;;;;;;;;;5010388;28;20475;-71
2023/01/03 12:19:32;;;;;;;5.10;3.53;;;;;;;;;;4998541;28;20812;-71
2023/01/03 12:22:23;;;;;;;6.83;4.10;;;;;;;;;;5001681;28;20683;-70
2023/01/03 12:25:19;;;;;;;6.00;4.83;;;;;;;;;;4997089;28;20511;-71
2023/01/03 12:28:13;;;;;;;8.90;4.93;;;;;;;;;;4999484;28;20444;-69
2023/01/03 12:31:03;;;;;;;5.90;4.30;;;;;;;;;;4994858;28;20614;-69
2023/01/03 12:33:56;;;;;;;6.07;4.80;;;;;;;;;;5001412;28;20476;-70
2023/01/03 12:36:49;;;;;;;4.90;4.33;;;;;;;;;;4989220;28;20531;-69
2023/01/03 12:39:43;;;;;;;6.60;4.60;;;;;;;;;;4998775;28;21669;-69
2023/01/03 12:42:36;;;;;;;4.77;3.50;;;;;;;;;;4995817;28;20487;-69
2023/01/03 12:45:37;;;;;;;6.83;4.87;;;;;;;;;;4996186;28;20619;-69
2023/01/03 12:48:44;;;;;;;5.70;4.50;;;;;;;;;;5013261;28;20480;-69
2023/01/03 12:51:36;;;;;;;5.37;3.90;;;;;;;;;;5011697;28;20472;-69
2023/01/03 12:54:35;;;;;;;6.30;4.03;;;;;;;;;;5009607;28;20489;-70
2023/01/03 12:57:45;;;;;;;8.03;4.53;;;;;;;;;;5002611;28;20530;-69
2023/01/03 13:00:47;;;;;;;8.53;4.13;;;;;;;;;;4997333;28;21737;-69
2023/01/03 13:03:39;;;;;;;4.70;4.00;;;;;;;;;;5002109;28;20555;-69
2023/01/03 13:06:30;;;;;;;5.93;4.50;;;;;;;;;;5002694;28;20488;-68
2023/01/03 13:09:20;;;;;;;4.97;4.40;;;;;;;;;;5009802;28;21000;-71
2023/01/03 13:12:14;;;;;;;4.83;3.87;;;;;;;;;;5006671;28;22037;-69
2023/01/03 13:15:07;;;;;;;3.87;3.47;;;;;;;;;;5002482;28;20480;-70
2023/01/03 13:18:16;;;;;;;3.90;3.53;;;;;;;;;;5007920;28;20476;-69
2023/01/03 13:21:20;;;;;;;4.10;3.60;;;;;;;;;;5007578;28;20474;-70
2023/01/03 13:24:08;;;;;;;5.10;3.97;;;;;;;;;;5007117;28;20488;-70
2023/01/03 13:27:15;;;;;;;4.03;3.63;;;;;;;;;;5011870;28;20467;-70
2023/01/03 13:30:18;;;;;;;4.10;3.70;;;;;;;;;;4992631;28;21484;-71
2023/01/03 13:33:16;;;;;;;4.13;3.73;;;;;;;;;;4997937;28;20543;-70
2023/01/03 13:36:05;;;;;;;3.90;3.50;;;;;;;;;;5007427;28;20460;-71
2023/01/03 13:38:55;;;;;;;6.50;4.33;;;;;;;;;;5008466;28;20553;-69
2023/01/03 13:41:44;;;;;;;7.00;4.30;;;;;;;;;;5005933;28;20495;-70
2023/01/03 13:44:32;;;;;;;6.20;4.00;;;;;;;;;;5002205;28;20567;-70
2023/01/03 13:47:26;;;;;;;5.60;4.83;;;;;;;;;;4999861;28;21031;-70
2023/01/03 13:50:22;;;;;;;7.07;4.77;;;;;;;;;;5004377;28;22055;-70
2023/01/03 13:53:26;;;;;;;6.80;5.47;;;;;;;;;;5003762;28;20986;-70
2023/01/03 13:56:23;;;;;;;8.70;5.23;;;;;;;;;;5012872;28;20456;-70
2023/01/03 13:59:18;;;;;;;6.93;5.50;;;;;;;;;;5013847;28;20486;-70
2023/01/03 14:02:26;;;;;;;9.53;5.90;;;;;;;;;;5014018;28;20488;-70
2023/01/03 14:05:33;;;;;;;6.93;5.73;;;;;;;;;;5012960;28;20494;-70
2023/01/03 14:08:26;;;;;;;8.83;5.53;;;;;;;;;;5011269;28;20512;-77
2023/01/03 14:11:30;;;;;;;6.60;5.10;;;;;;;;;;5012971;28;20475;-76
2023/01/03 14:14:22;;;;;;;8.00;5.57;;;;;;;;;;5010815;28;21018;-76
2023/01/03 14:17:16;;;;;;;6.30;5.50;;;;;;;;;;5018025;28;20452;-77
2023/01/03 14:20:08;;;;;;;8.07;5.63;;;;;;;;;;5017561;28;20936;-75
2023/01/03 14:23:01;;;;;;;9.70;6.47;;;;;;;;;;5019868;28;20992;-76
2023/01/03 14:26:13;;;;;;;7.10;5.60;;;;;;;;;;5017328;28;20444;-75
2023/01/03 14:29:02;;;;;;;10.30;6.33;;;;;;;;;;5013317;28;20972;-72
2023/01/03 14:31:54;;;;;;;9.00;5.30;;;;;;;;;;5006207;28;20476;-71
2023/01/03 14:34:43;;;;;;;10.40;6.60;;;;;;;;;;5004441;28;20520;-70
2023/01/03 14:37:33;;;;;;;10.40;7.10;;;;;;;;;;5002562;28;21026;-74
2023/01/03 14:40:23;;;;;;;7.80;5.80;;;;;;;;;;5005160;28;22163;-72
2023/01/03 14:43:12;;;;;;;7.33;6.60;;;;;;;;;;5009358;28;20471;-72
2023/01/03 14:46:11;;;;;;;7.67;6.47;;;;;;;;;;5006496;28;20991;-72
2023/01/03 14:49:01;;;;;;;8.53;6.60;;;;;;;;;;5000615;28;20447;-71
2023/01/03 14:51:51;;;;;;;8.00;6.40;;;;;;;;;;5009807;28;20567;-72
2023/01/03 14:54:43;;;;;;;13.57;7.10;;;;;;;;;;5011834;28;20464;-73
2023/01/03 14:57:37;;;;;;;9.30;7.10;;;;;;;;;;5006924;28;20877;-71
2023/01/03 15:00:27;;;;;;;10.00;6.73;;;;;;;;;;4998820;28;20507;-71
2023/01/03 15:03:20;;;;;;;9.77;6.87;;;;;;;;;;5000841;28;20460;-71
2023/01/03 15:06:23;;;;;;;9.10;6.40;;;;;;;;;;5008471;28;20464;-71
2023/01/03 15:09:21;;;;;;;8.50;6.30;;;;;;;;;;5005979;28;20522;-71
2023/01/03 15:12:09;;;;;;;9.40;6.43;;;;;;;;;;5005884;28;20476;-71
2023/01/03 15:15:06;;;;;;;8.30;6.27;;;;;;;;;;4995618;28;20477;-71
2023/01/03 15:17:56;;;;;;;10.37;6.93;;;;;;;;;;5001331;28;20444;-70
2023/01/03 15:20:45;;;;;;;9.87;6.93;;;;;;;;;;4992982;28;20637;-72
2023/01/03 15:23:38;;;;;;;7.73;6.30;;;;;;;;;;5007697;28;20517;-72
2023/01/03 15:26:28;;;;;;;8.20;6.00;;;;;;;;;;5009191;28;20905;-72
2023/01/03 15:29:18;;;;;;;8.40;6.50;;;;;;;;;;5005170;28;20518;-72
2023/01/03 15:32:11;;;;;;;6.20;5.60;;;;;;;;;;4992424;28;21038;-70
2023/01/03 15:35:00;;;;;;;7.87;6.33;;;;;;;;;;5000477;28;22224;-72
2023/01/03 15:37:52;;;;;;;8.43;6.33;;;;;;;;;;4995499;28;20891;-72
2023/01/03 15:40:40;;;;;;;8.30;5.90;;;;;;;;;;5002757;28;20585;-72
2023/01/03 15:43:31;;;;;;;7.43;6.20;;;;;;;;;;5007613;28;21119;-72
2023/01/03 15:46:20;;;;;;;7.77;6.87;;;;;;;;;;4996385;28;20439;-71
2023/01/03 15:49:12;;;;;;;7.50;6.50;;;;;;;;;;4985590;28;20470;-72
2023/01/03 15:52:01;;;;;;;9.80;7.37;;;;;;;;;;4991823;28;20855;-71
2023/01/03 15:54:49;;;;;;;8.67;7.50;;;;;;;;;;4982120;28;20614;-71
2023/01/03 15:57:38;;;;;;;9.30;7.37;;;;;;;;;;4990989;28;20461;-71
2023/01/03 16:00:27;;;;;;;10.17;8.03;;;;;;;;;;4998758;28;20487;-71
2023/01/03 16:03:16;;;;;;;11.43;8.90;;;;;;;;;;4993746;28;20471;-71
2023/01/03 16:06:06;;;;;;;10.70;8.70;;;;;;;;;;4996452;28;20455;-71
2023/01/03 16:08:55;;;;;;;12.37;10.37;;;;;;;;;;5004924;28;20457;-71
2023/01/03 16:11:47;;;;;;;11.57;10.13;;;;;;;;;;5013019;28;21057;-71
2023/01/03 16:14:38;;;;;;;15.83;11.07;;;;;;;;;;5006184;28;21012;-71
2023/01/03 16:17:28;;;;;;;13.67;9.87;;;;;;;;;;5008413;28;20495;-71
2023/01/03 16:20:17;;;;;;;14.23;11.37;;;;;;;;;;4991306;28;20484;-71
2023/01/03 16:23:15;;;;;;;14.57;11.00;;;;;;;;;;5009005;28;20530;-71
2023/01/03 16:26:04;;;;;;;14.70;10.90;;;;;;;;;;5012976;28;20522;-71
2023/01/03 16:28:53;;;;;;;13.30;10.80;;;;;;;;;;5002419;28;21100;-70
2023/01/03 16:31:42;;;;;;;13.30;10.63;;;;;;;;;;5008811;28;20554;-71
2023/01/03 16:34:31;;;;;;;14.13;11.20;;;;;;;;;;5007511;28;20476;-71
2023/01/03 16:37:21;;;;;;;15.97;12.00;;;;;;;;;;4997781;28;20781;-70
2023/01/03 16:40:16;;;;;;;16.07;11.77;;;;;;;;;;4999623;28;20619;-71
2023/01/03 16:43:04;;;;;;;14.77;10.80;;;;;;;;;;5012213;28;20452;-70
2023/01/03 16:45:54;;;;;;;15.83;11.30;;;;;;;;;;5004827;28;20456;-70
2023/01/03 16:48:46;;;;;;;14.33;11.80;;;;;;;;;;5006365;28;20979;-71
2023/01/03 16:51:36;;;;;;;14.27;11.33;;;;;;;;;;5005124;28;21098;-70
2023/01/03 16:54:30;;;;;;;14.83;12.10;;;;;;;;;;4997838;28;21124;-71
2023/01/03 16:57:21;;;;;;;14.30;11.63;;;;;;;;;;4993075;28;20945;-71
2023/01/03 17:00:17;;;;;;;16.93;11.63;;;;;;;;;;4994819;28;20495;-70
2023/01/03 17:03:06;;;;;;;15.80;12.57;;;;;;;;;;5000723;28;20694;-71
2023/01/03 17:05:55;;;;;;;19.17;12.83;;;;;;;;;;4992922;28;20467;-73
2023/01/03 17:08:44;;;;;;;15.43;12.30;;;;;;;;;;4991507;28;20688;-71
2023/01/03 17:11:34;;;;;;;15.60;12.20;;;;;;;;;;4988795;28;20500;-71
2023/01/03 17:14:25;;;;;;;15.43;12.57;;;;;;;;;;4983505;28;20467;-71
2023/01/03 17:17:16;;;;;;;17.27;13.80;;;;;;;;;;4997920;28;20630;-72
2023/01/03 17:20:14;;;;;;;18.70;14.07;;;;;;;;;;5000122;28;20755;-71
2023/01/03 17:23:02;;;;;;;17.17;13.90;;;;;;;;;;4997463;28;21360;-73
2023/01/03 17:25:51;;;;;;;17.17;13.90;;;;;;;;;;4990453;28;20453;-72
2023/01/03 17:28:40;;;;;;;19.97;14.30;;;;;;;;;;4987238;28;20468;-72
2023/01/03 17:31:30;;;;;;;20.33;13.90;;;;;;;;;;4994767;28;20516;-71
2023/01/03 17:34:22;;;;;;;16.40;13.50;;;;;;;;;;5005828;28;20836;-70
2023/01/03 17:37:16;;;;;;;14.87;12.37;;;;;;;;;;5008959;28;20668;-71
2023/01/03 17:40:05;;;;;;;18.03;13.53;;;;;;;;;;5007612;28;20777;-72
2023/01/03 17:42:54;;;;;;;17.03;13.53;;;;;;;;;;5002137;28;20451;-71
2023/01/03 17:52:00;;;;;;;16.77;12.97;;;;;;;;;;5010697;28;20468;-76
2023/01/03 17:54:49;;;;;;;18.70;14.63;;;;;;;;;;5016961;28;20991;-73
2023/01/03 17:57:38;;;;;;;18.57;14.73;;;;;;;;;;5010337;28;20444;-74
2023/01/03 18:00:27;;;;;;;19.47;15.43;;;;;;;;;;5009246;28;20487;-73
2023/01/03 18:03:16;;;;;;;18.47;14.50;;;;;;;;;;5006111;28;20967;-77